createdAt,value
2022-09-11T00:01:02.920Z,31.1
2022-09-11T00:06:39.351Z,33.2
2022-09-11T00:11:15.723Z,35.6
2022-09-11T00:16:22.124Z,39.2
2022-09-11T00:21:28.462Z,32.9
2022-09-11T00:32:24.753Z,37.5
2022-09-11T00:37:32.207Z,32.9
2022-09-11T00:42:28.564Z,44.4
2022-09-11T00:47:44.018Z,30.3
2022-09-11T00:52:55.394Z,41.2
2022-09-11T00:57:57.954Z,35.2
2022-09-11T01:02:54.348Z,33.2
2022-09-11T01:08:13.709Z,33.8
2022-09-11T01:13:17.198Z,43.1
2022-09-11T01:18:23.705Z,38.2
2022-09-11T01:23:30.060Z,33.9
2022-09-11T01:28:26.420Z,42.9
2022-09-11T01:33:43.025Z,46.7
2022-09-11T01:39:03.220Z,43.9
2022-09-11T01:43:45.545Z,50.9
2022-09-11T01:49:05.978Z,50.3
2022-09-11T01:53:58.325Z,36.2
2022-09-11T01:59:18.727Z,44.2
2022-09-11T02:04:21.179Z,50.5
2022-09-11T02:09:17.531Z,37.1
2022-09-11T02:14:33.931Z,37.4
2022-09-11T02:19:40.475Z,51.4
2022-09-11T02:24:46.913Z,94.6
2022-09-11T02:31:09.529Z,68.3
2022-09-11T02:36:16.855Z,45.2
2022-09-11T02:41:47.339Z,58.0
2022-09-11T02:46:29.711Z,124.6
2022-09-11T02:51:26.097Z,64.8
2022-09-11T02:57:54.622Z,45.8
2022-09-11T03:01:52.949Z,52.8
2022-09-11T03:06:55.332Z,115.6
2022-09-11T03:12:01.622Z,40.8
2022-09-11T03:18:10.139Z,44.7
2022-09-11T03:22:33.479Z,41.8
2022-09-11T03:27:20.790Z,38.8
2022-09-11T03:32:27.194Z,36.8
2022-09-11T03:37:33.576Z,66.8
2022-09-11T03:42:39.961Z,69.1
2022-09-11T03:47:46.479Z,35.1
2022-09-11T03:52:52.928Z,46.8
2022-09-11T03:57:59.430Z,47.6
2022-09-11T04:03:05.807Z,49.2
2022-09-11T04:08:16.199Z,52.7
2022-09-11T04:13:18.599Z,46.3
2022-09-11T04:18:14.959Z,50.5
2022-09-11T04:23:30.346Z,38.8
2022-09-11T04:28:27.721Z,41.6
2022-09-11T04:33:44.100Z,40.5
2022-09-11T04:38:50.501Z,43.1
2022-09-11T04:44:17.029Z,49.2
2022-09-11T04:49:07.365Z,42.0
2022-09-11T04:53:59.700Z,47.5
2022-09-11T04:59:16.305Z,43.2
2022-09-11T05:04:25.934Z,47.4
2022-09-11T05:09:29.096Z,43.2
2022-09-11T05:14:35.602Z,43.3
2022-09-11T05:19:42.104Z,45.5
2022-09-11T05:24:48.463Z,45.9
2022-09-11T05:29:54.844Z,56.5
2022-09-11T05:35:29.222Z,49.0
2022-09-11T05:40:11.698Z,41.2
2022-09-11T05:45:03.986Z,51.5
2022-09-11T05:50:20.396Z,55.4
2022-09-11T05:55:26.798Z,43.9
2022-09-11T06:00:33.162Z,45.9
2022-09-11T06:05:39.528Z,48.3
2022-09-11T06:10:46.107Z,44.9
2022-09-11T06:15:52.569Z,49.3
2022-09-11T06:20:48.991Z,51.1
2022-09-11T06:25:55.500Z,45.3
2022-09-11T06:31:11.887Z,43.5
2022-09-11T06:36:18.269Z,41.9
2022-09-11T06:41:14.666Z,46.9
2022-09-11T06:46:34.035Z,44.6
2022-09-11T06:51:27.386Z,39.1
2022-09-11T06:56:43.808Z,43.2
2022-09-11T07:01:50.343Z,38.6
2022-09-11T07:07:00.563Z,35.4
2022-09-11T07:11:53.025Z,38.1
2022-09-11T07:17:23.432Z,44.8
2022-09-11T07:22:04.920Z,39.2
2022-09-11T07:27:22.343Z,32.4
2022-09-11T07:32:18.820Z,42.8
2022-09-11T07:37:25.253Z,42.1
2022-09-11T07:42:41.685Z,47.7
2022-09-11T07:47:38.180Z,49.7
2022-09-11T07:52:54.575Z,48.3
2022-09-11T07:58:00.977Z,41.4
2022-09-11T08:03:07.333Z,38.4
2022-09-11T08:08:13.715Z,48.2
2022-09-11T08:13:20.114Z,42.9
2022-09-11T08:18:26.471Z,34.9
2022-09-11T08:23:36.851Z,39.5
2022-09-11T08:28:39.247Z,31.3
2022-09-11T08:33:45.595Z,35.5
2022-09-11T08:38:55.998Z,37.9
2022-09-11T08:43:58.424Z,42.0
2022-09-11T08:48:54.900Z,36.8
2022-09-11T08:54:01.273Z,35.9
2022-09-11T08:59:06.681Z,35.2
2022-09-11T09:04:23.048Z,44.2
2022-09-11T09:09:34.819Z,33.1
2022-09-11T09:14:36.912Z,27.7
2022-09-11T09:19:43.261Z,24.7
2022-09-11T09:24:49.658Z,25.3
2022-09-11T09:29:56.205Z,28.9
2022-09-11T09:34:52.656Z,23.1
2022-09-11T09:40:09.113Z,21.6
2022-09-11T09:45:15.470Z,23.3
2022-09-11T09:50:21.819Z,21.9
2022-09-11T09:55:28.215Z,19.3
2022-09-11T10:00:34.617Z,18.5
2022-09-11T10:05:40.974Z,18.9
2022-09-11T10:10:47.381Z,19.6
2022-09-11T10:15:43.813Z,18.8
2022-09-11T10:20:50.119Z,15.9
2022-09-11T10:25:56.614Z,16.4
2022-09-11T10:31:13.171Z,18.4
2022-09-11T10:36:23.510Z,21.6
2022-09-11T10:41:25.881Z,15.2
2022-09-11T10:46:46.316Z,13.9
2022-09-11T10:51:28.664Z,14.0
2022-09-11T10:56:45.064Z,16.0
2022-09-11T11:01:41.511Z,14.0
2022-09-11T11:06:57.846Z,14.8
2022-09-11T11:11:54.177Z,13.3
2022-09-11T11:17:30.607Z,13.2
2022-09-11T11:22:37.035Z,12.6
2022-09-11T11:27:13.317Z,13.4
2022-09-11T11:32:29.705Z,15.7
2022-09-11T11:37:36.290Z,13.0
2022-09-11T11:42:43.784Z,15.2
2022-09-11T11:47:50.228Z,12.8
2022-09-11T11:52:56.610Z,14.7
2022-09-11T11:58:03.034Z,12.4
2022-09-11T12:03:09.423Z,12.8
2022-09-11T12:08:15.771Z,16.5
2022-09-11T12:13:22.173Z,16.7
2022-09-11T12:18:18.512Z,13.2
2022-09-11T12:23:35.017Z,13.2
2022-09-11T12:28:41.607Z,14.3
2022-09-11T12:33:47.908Z,14.5
2022-09-11T12:38:54.279Z,14.5
2022-09-11T12:44:00.663Z,16.9
2022-09-11T12:49:21.707Z,17.3
2022-09-11T12:54:13.533Z,12.8
2022-09-11T12:59:19.930Z,13.3
2022-09-11T13:04:26.267Z,13.8
2022-09-11T13:09:32.670Z,11.7
2022-09-11T13:14:39.074Z,13.4
2022-09-11T13:19:35.408Z,12.0
2022-09-11T13:24:53.392Z,15.7
2022-09-11T13:29:59.798Z,15.4
2022-09-11T13:35:06.164Z,12.2
2022-09-11T13:40:12.608Z,17.1
2022-09-11T13:45:18.945Z,13.9
2022-09-11T13:50:25.288Z,11.8
2022-09-11T13:55:31.695Z,12.3
2022-09-11T14:00:38.102Z,14.4
2022-09-11T14:05:48.473Z,12.2
2022-09-11T14:11:24.926Z,14.9
2022-09-11T14:16:32.332Z,12.4
2022-09-11T14:21:52.714Z,16.5
2022-09-11T14:26:45.066Z,16.4
2022-09-11T14:31:51.466Z,13.7
2022-09-11T14:38:22.041Z,12.5
2022-09-11T14:42:04.257Z,17.4
2022-09-11T14:47:10.661Z,16.6
2022-09-11T14:52:17.015Z,11.7
2022-09-11T14:57:23.379Z,16.6
2022-09-11T15:02:29.789Z,13.3
2022-09-11T15:07:36.230Z,16.8
2022-09-11T15:12:42.729Z,22.0
2022-09-11T15:17:49.083Z,15.3
2022-09-11T15:22:55.553Z,12.8
2022-09-11T15:28:05.941Z,12.6
2022-09-11T15:33:08.359Z,12.9
2022-09-11T15:38:14.723Z,15.0
2022-09-11T15:43:11.198Z,18.5
2022-09-11T15:48:41.670Z,15.7
2022-09-11T15:53:34.113Z,14.8
2022-09-11T15:58:40.463Z,15.4
2022-09-11T16:03:46.886Z,17.5
2022-09-11T16:08:53.230Z,16.5
2022-09-11T16:13:59.607Z,15.3
2022-09-11T16:18:56.011Z,20.3
2022-09-11T16:24:26.502Z,18.2
2022-09-11T16:29:08.849Z,17.7
2022-09-11T16:34:15.324Z,19.7
2022-09-11T16:39:31.697Z,22.3
2022-09-11T16:44:28.044Z,16.6
2022-09-11T16:50:05.979Z,16.9
2022-09-11T16:55:13.891Z,19.7
2022-09-11T16:59:56.228Z,20.8
2022-09-11T17:05:17.659Z,17.9
2022-09-11T17:10:09.988Z,21.8
2022-09-11T17:15:16.472Z,18.0
2022-09-11T17:20:26.873Z,24.5
2022-09-11T17:25:29.220Z,23.7
2022-09-11T17:30:25.669Z,20.2
2022-09-11T17:35:42.099Z,19.3
2022-09-11T17:41:16.509Z,17.7
2022-09-11T17:45:54.953Z,21.2
2022-09-11T17:50:51.503Z,18.6
2022-09-11T17:55:57.793Z,19.5
2022-09-11T18:01:16.919Z,20.4
2022-09-11T18:06:41.231Z,21.3
2022-09-11T18:12:39.680Z,18.0
2022-09-11T18:16:57.976Z,16.9
2022-09-11T18:21:40.320Z,24.6
2022-09-11T18:26:46.744Z,19.8
2022-09-11T18:31:43.144Z,22.9
2022-09-11T18:37:19.525Z,22.0
2022-09-11T18:44:54.228Z,21.5
2022-09-11T18:47:12.260Z,21.4
2022-09-11T18:52:22.650Z,20.1
2022-09-11T18:57:25.065Z,20.4
2022-09-11T19:02:21.458Z,18.8
2022-09-11T19:07:37.825Z,22.6
2022-09-11T19:12:44.200Z,20.3
2022-09-11T19:18:34.697Z,18.9
2022-09-11T19:23:02.758Z,24.4
2022-09-11T19:27:53.355Z,21.3
2022-09-11T19:33:09.885Z,22.1
2022-09-11T19:38:16.303Z,21.7
2022-09-11T19:43:22.680Z,21.7
2022-09-11T19:48:29.033Z,19.5
2022-09-11T19:53:25.437Z,26.2
2022-09-11T19:59:05.946Z,18.2
2022-09-11T20:04:12.426Z,20.9
2022-09-11T20:09:13.348Z,22.4
2022-09-11T20:14:01.242Z,19.4
2022-09-11T20:19:07.619Z,18.4
2022-09-11T20:24:14.032Z,21.3
2022-09-11T20:29:20.391Z,23.4
2022-09-11T20:34:26.904Z,17.8
2022-09-11T20:40:01.424Z,20.8
2022-09-11T20:44:39.668Z,20.3
2022-09-11T20:49:47.606Z,23.3
2022-09-11T20:54:53.988Z,20.5
2022-09-11T21:00:06.011Z,28.3
2022-09-11T21:05:12.336Z,20.0
2022-09-11T21:10:18.715Z,22.1
2022-09-11T21:15:21.176Z,23.2
2022-09-11T21:20:33.120Z,24.4
2022-09-11T21:25:35.579Z,22.9
2022-09-11T21:31:10.083Z,23.6
2022-09-11T21:35:52.338Z,31.2
2022-09-11T21:40:56.286Z,19.2
2022-09-11T21:46:06.674Z,23.5
2022-09-11T21:51:34.695Z,22.0
2022-09-11T21:56:17.065Z,23.2
2022-09-11T22:01:23.705Z,22.4
2022-09-11T22:06:30.134Z,22.0
2022-09-11T22:11:36.634Z,25.9
2022-09-11T22:16:43.101Z,25.6
2022-09-11T22:21:49.485Z,22.1
2022-09-11T22:26:45.863Z,22.6
2022-09-11T22:32:02.357Z,21.8
2022-09-11T22:37:08.729Z,26.0
2022-09-11T22:42:15.149Z,23.2
2022-09-11T22:47:25.510Z,23.1
2022-09-11T22:52:31.921Z,23.7
2022-09-11T22:57:35.921Z,24.3
2022-09-11T23:02:42.306Z,23.1
2022-09-11T23:07:54.285Z,25.2
2022-09-11T23:12:56.689Z,27.5
2022-09-11T23:17:53.001Z,21.1
2022-09-11T23:23:32.441Z,24.5
2022-09-11T23:28:17.369Z,24.0
2022-09-11T23:33:26.734Z,26.3
2022-09-11T23:38:30.175Z,24.8
2022-09-11T23:43:40.593Z,24.7
2022-09-11T23:48:46.654Z,27.5
2022-09-11T23:53:53.180Z,21.7
2022-09-11T23:58:59.621Z,22.5
